createdAt,value
2022-12-01T00:00:20.295Z,20.35
2022-12-01T00:03:23.100Z,13.45
2022-12-01T00:06:25.556Z,12.00
2022-12-01T00:09:46.393Z,14.73
2022-12-01T00:12:48.979Z,19.65
2022-12-01T00:15:51.379Z,14.73
2022-12-01T00:18:53.847Z,14.73
2022-12-01T00:21:56.400Z,15.13
2022-12-01T00:24:58.805Z,15.97
2022-12-01T00:28:01.202Z,11.25
2022-12-01T00:31:08.149Z,14.88
2022-12-01T00:34:24.952Z,7.60
2022-12-01T00:37:29.828Z,9.63
2022-12-01T00:40:32.304Z,12.20
2022-12-01T00:43:34.955Z,12.30
2022-12-01T00:46:37.471Z,12.65
2022-12-01T00:49:40.195Z,14.10
2022-12-01T00:52:42.697Z,11.30
2022-12-01T00:55:45.205Z,11.37
2022-12-01T00:58:47.936Z,15.60
2022-12-01T01:01:50.442Z,10.50
2022-12-01T01:04:53.586Z,11.82
2022-12-01T01:07:56.009Z,11.40
2022-12-01T01:11:00.187Z,12.37
2022-12-01T01:14:03.045Z,8.13
2022-12-01T01:17:05.898Z,10.52
2022-12-01T01:20:09.124Z,10.57
2022-12-01T01:23:11.595Z,10.07
2022-12-01T01:26:17.153Z,15.70
2022-12-01T01:29:20.091Z,14.48
2022-12-01T01:32:22.474Z,14.60
2022-12-01T01:35:24.924Z,12.95
2022-12-01T01:38:28.477Z,10.27
2022-12-01T01:41:30.953Z,10.87
2022-12-01T01:44:56.310Z,11.43
2022-12-01T01:47:59.902Z,9.18
2022-12-01T01:51:02.584Z,10.38
2022-12-01T01:54:08.646Z,12.05
2022-12-01T01:57:12.472Z,11.43
2022-12-01T02:00:18.193Z,10.73
2022-12-01T02:03:20.919Z,10.60
2022-12-01T02:06:24.636Z,11.02
2022-12-01T02:09:27.672Z,11.55
2022-12-01T02:13:15.996Z,10.90
2022-12-01T02:16:35.935Z,11.05
2022-12-01T02:20:02.649Z,12.80
2022-12-01T02:23:26.589Z,8.50
2022-12-01T02:26:39.764Z,7.53
2022-12-01T02:30:00.671Z,7.80
2022-12-01T02:33:24.225Z,8.40
2022-12-01T02:36:37.459Z,9.55
2022-12-01T02:40:02.063Z,9.38
2022-12-01T02:43:08.080Z,19.35
2022-12-01T02:46:32.549Z,11.87
2022-12-01T02:49:37.497Z,11.60
2022-12-01T02:52:40.588Z,10.30
2022-12-01T02:55:52.021Z,12.20
2022-12-01T02:58:54.579Z,16.45
2022-12-01T03:02:00.210Z,20.10
2022-12-01T03:05:05.637Z,25.35
2022-12-01T03:08:19.587Z,13.40
2022-12-01T03:11:28.924Z,13.65
2022-12-01T03:14:51.085Z,11.85
2022-12-01T03:17:59.374Z,14.70
2022-12-01T03:21:09.761Z,13.25
2022-12-01T03:24:17.581Z,13.68
2022-12-01T03:27:23.091Z,15.10
2022-12-01T03:30:26.199Z,12.95
2022-12-01T03:33:35.953Z,16.57
2022-12-01T03:36:48.406Z,16.30
2022-12-01T03:39:55.868Z,21.50
2022-12-01T03:43:03.951Z,28.23
2022-12-01T03:46:41.168Z,31.33
2022-12-01T03:49:45.272Z,16.13
2022-12-01T03:52:58.583Z,16.63
2022-12-01T03:56:03.555Z,18.83
2022-12-01T03:59:07.558Z,16.77
2022-12-01T04:02:10.125Z,18.35
2022-12-01T04:05:12.875Z,24.73
2022-12-01T04:08:15.290Z,28.67
2022-12-01T04:11:36.136Z,24.95
2022-12-01T04:14:38.626Z,19.73
2022-12-01T04:17:45.115Z,15.73
2022-12-01T04:20:50.651Z,17.93
2022-12-01T04:24:02.074Z,11.43
2022-12-01T04:27:04.497Z,13.77
2022-12-01T04:30:08.041Z,9.93
2022-12-01T04:33:10.425Z,11.80
2022-12-01T04:36:12.808Z,10.63
2022-12-01T04:39:15.294Z,9.82
2022-12-01T04:42:17.720Z,9.63
2022-12-01T04:45:20.127Z,11.60
2022-12-01T04:48:22.574Z,11.05
2022-12-01T04:51:25.002Z,6.90
2022-12-01T04:54:27.541Z,10.25
2022-12-01T04:57:29.960Z,7.43
2022-12-01T05:00:33.511Z,12.40
2022-12-01T05:03:38.218Z,9.00
2022-12-01T05:06:41.187Z,12.17
2022-12-01T05:09:43.699Z,15.23
2022-12-01T05:12:46.405Z,11.80
2022-12-01T05:15:49.046Z,10.57
2022-12-01T05:19:16.557Z,9.63
2022-12-01T05:22:31.486Z,9.37
2022-12-01T05:25:42.502Z,11.13
2022-12-01T05:28:44.937Z,10.40
2022-12-01T05:31:47.541Z,14.98
2022-12-01T05:34:50.123Z,13.13
2022-12-01T05:37:52.594Z,12.73
2022-12-01T05:40:56.046Z,11.32
2022-12-01T05:43:58.525Z,15.00
2022-12-01T05:47:00.982Z,14.50
2022-12-01T05:50:05.903Z,14.98
2022-12-01T05:53:11.299Z,16.97
2022-12-01T05:56:13.793Z,15.60
2022-12-01T05:59:16.274Z,17.75
2022-12-01T06:02:18.933Z,14.82
2022-12-01T06:05:21.444Z,16.27
2022-12-01T06:08:24.025Z,13.73
2022-12-01T06:11:26.471Z,18.10
2022-12-01T06:14:28.951Z,20.33
2022-12-01T06:17:34.584Z,18.60
2022-12-01T06:20:39.426Z,25.05
2022-12-01T06:23:41.918Z,32.60
2022-12-01T06:26:44.271Z,30.83
2022-12-01T06:29:46.711Z,34.60
2022-12-01T06:32:49.184Z,37.42
2022-12-01T06:35:59.184Z,161.55
2022-12-01T06:39:01.575Z,74.43
2022-12-01T06:42:04.052Z,70.55
2022-12-01T06:45:06.898Z,75.72
2022-12-01T06:48:09.523Z,48.30
2022-12-01T06:51:11.942Z,50.80
2022-12-01T06:54:15.249Z,37.90
2022-12-01T06:57:17.633Z,25.08
2022-12-01T07:00:20.601Z,22.17
2022-12-01T07:03:23.145Z,20.48
2022-12-01T07:06:25.704Z,21.45
2022-12-01T07:09:28.136Z,23.57
2022-12-01T07:12:31.828Z,14.30
2022-12-01T07:15:34.227Z,24.48
2022-12-01T07:18:37.418Z,19.83
2022-12-01T07:21:46.467Z,11.68
2022-12-01T07:24:48.900Z,10.60
2022-12-01T07:27:51.384Z,13.88
2022-12-01T07:30:53.775Z,15.27
2022-12-01T07:33:57.501Z,19.80
2022-12-01T07:36:59.905Z,14.80
2022-12-01T07:40:02.456Z,10.03
2022-12-01T07:43:05.114Z,12.00
2022-12-01T07:46:22.813Z,11.45
2022-12-01T07:49:26.349Z,13.68
2022-12-01T07:52:28.910Z,12.75
2022-12-01T07:55:31.312Z,13.30
2022-12-01T07:58:34.096Z,14.50
2022-12-01T08:01:39.257Z,11.23
2022-12-01T08:04:45.458Z,11.93
2022-12-01T08:07:48.037Z,7.07
2022-12-01T08:10:50.755Z,20.57
2022-12-01T08:13:53.508Z,10.57
2022-12-01T08:16:55.916Z,9.63
2022-12-01T08:19:58.717Z,9.60
2022-12-01T08:23:01.795Z,13.68
2022-12-01T08:26:06.667Z,11.30
2022-12-01T08:29:09.324Z,6.90
2022-12-01T08:32:11.916Z,11.43
2022-12-01T08:35:15.385Z,11.52
2022-12-01T08:38:18.164Z,11.20
2022-12-01T08:41:21.652Z,11.50
2022-12-01T08:44:24.088Z,9.73
2022-12-01T08:47:28.902Z,13.13
2022-12-01T08:50:31.583Z,8.25
2022-12-01T08:53:35.511Z,9.70
2022-12-01T08:56:43.317Z,10.17
2022-12-01T08:59:45.832Z,10.15
2022-12-01T09:02:49.471Z,11.60
2022-12-01T09:05:51.960Z,9.75
2022-12-01T09:08:54.363Z,9.85
2022-12-01T09:11:57.261Z,8.93
2022-12-01T09:15:02.193Z,7.60
2022-12-01T09:18:04.936Z,9.48
2022-12-01T09:21:24.028Z,9.40
2022-12-01T09:24:27.384Z,10.23
2022-12-01T09:27:29.800Z,12.47
2022-12-01T09:30:32.283Z,15.40
2022-12-01T09:33:35.000Z,12.10
2022-12-01T09:36:38.155Z,8.95
2022-12-01T09:39:40.601Z,8.73
2022-12-01T09:42:44.611Z,10.27
2022-12-01T09:45:50.625Z,8.07
2022-12-01T09:48:54.341Z,9.27
2022-12-01T09:51:56.745Z,8.02
2022-12-01T09:55:00.408Z,9.50
2022-12-01T09:58:04.496Z,7.33
2022-12-01T10:01:15.692Z,10.05
2022-12-01T10:04:31.095Z,8.70
2022-12-01T10:07:40.319Z,9.20
2022-12-01T10:10:46.432Z,7.95
2022-12-01T10:13:48.908Z,7.73
2022-12-01T10:17:03.971Z,7.70
2022-12-01T10:20:13.357Z,7.82
2022-12-01T10:23:43.844Z,7.95
2022-12-01T10:26:52.328Z,9.80
2022-12-01T10:29:58.907Z,12.37
2022-12-01T10:33:24.274Z,8.13
2022-12-01T10:36:27.668Z,8.27
2022-12-01T10:39:40.250Z,18.85
2022-12-01T10:42:48.316Z,13.65
2022-12-01T10:45:51.111Z,10.37
2022-12-01T10:48:58.918Z,17.63
2022-12-01T10:52:01.891Z,14.43
2022-12-01T10:55:26.493Z,14.43
2022-12-01T10:58:31.924Z,14.00
2022-12-01T11:01:35.933Z,19.10
2022-12-01T11:04:56.236Z,10.02
2022-12-01T11:07:59.122Z,8.57
2022-12-01T11:11:01.840Z,12.98
2022-12-01T11:14:17.980Z,16.20
2022-12-01T11:17:26.282Z,14.17
2022-12-01T11:20:39.688Z,10.63
2022-12-01T11:23:50.665Z,8.00
2022-12-01T11:26:53.370Z,10.98
2022-12-01T11:29:58.292Z,15.25
2022-12-01T11:33:02.991Z,8.60
2022-12-01T11:36:11.838Z,8.00
2022-12-01T11:39:44.443Z,11.32
2022-12-01T11:42:55.814Z,9.35
2022-12-01T11:46:00.772Z,7.32
2022-12-01T11:49:04.055Z,8.70
2022-12-01T11:52:28.099Z,10.88
2022-12-01T11:55:31.696Z,10.05
2022-12-01T11:58:34.149Z,20.23
2022-12-01T12:01:49.458Z,13.55
2022-12-01T12:05:03.343Z,10.57
2022-12-01T12:08:18.102Z,13.95
2022-12-01T12:11:49.674Z,11.77
2022-12-01T12:15:29.835Z,16.13
2022-12-01T12:19:07.905Z,12.30
2022-12-01T12:22:19.335Z,13.10
2022-12-01T12:25:30.957Z,14.70
2022-12-01T12:29:13.950Z,13.77
2022-12-01T12:32:28.502Z,18.02
2022-12-01T12:36:02.414Z,11.50
2022-12-01T12:39:24.493Z,14.17
2022-12-01T12:42:53.055Z,27.52
2022-12-01T12:46:07.809Z,10.70
2022-12-01T12:49:20.709Z,12.10
2022-12-01T12:52:26.857Z,11.32
2022-12-01T12:56:05.516Z,12.30
2022-12-01T12:59:12.057Z,12.52
2022-12-01T13:02:20.653Z,11.60
2022-12-01T13:05:36.266Z,10.73
2022-12-01T13:08:44.371Z,10.93
2022-12-01T13:12:22.217Z,11.63
2022-12-01T13:15:25.195Z,12.73
2022-12-01T13:18:44.023Z,12.02
2022-12-01T13:21:48.893Z,20.63
2022-12-01T13:24:52.312Z,10.57
2022-12-01T13:27:55.591Z,13.17
2022-12-01T13:31:00.352Z,13.98
2022-12-01T13:34:05.421Z,11.32
2022-12-01T13:37:09.227Z,20.60
2022-12-01T13:40:25.199Z,15.07
2022-12-01T13:43:27.619Z,12.63
2022-12-01T13:46:51.334Z,18.58
2022-12-01T13:49:53.976Z,19.80
2022-12-01T13:53:12.561Z,32.13
2022-12-01T13:56:17.939Z,30.48
2022-12-01T14:00:02.845Z,28.67
2022-12-01T14:03:17.637Z,22.63
2022-12-01T14:06:41.066Z,25.30
2022-12-01T14:09:44.239Z,19.45
2022-12-01T14:12:46.900Z,14.95
2022-12-01T14:15:57.299Z,15.27
2022-12-01T14:18:59.738Z,15.52
2022-12-01T14:22:04.448Z,14.35
2022-12-01T14:25:22.652Z,17.02
2022-12-01T14:29:10.889Z,11.52
2022-12-01T14:32:16.301Z,14.57
2022-12-01T14:35:18.906Z,12.43
2022-12-01T14:38:22.189Z,14.88
2022-12-01T14:41:30.771Z,15.73
2022-12-01T14:44:33.239Z,17.08
2022-12-01T14:47:42.645Z,15.27
2022-12-01T14:50:51.476Z,14.75
2022-12-01T14:53:55.047Z,22.67
2022-12-01T14:57:04.459Z,16.45
2022-12-01T15:00:19.656Z,16.35
2022-12-01T15:03:25.386Z,12.80
2022-12-01T15:06:31.751Z,17.10
2022-12-01T15:09:35.151Z,14.20
2022-12-01T15:12:38.063Z,10.35
2022-12-01T15:15:53.735Z,14.90
2022-12-01T15:18:58.611Z,15.13
2022-12-01T15:22:05.753Z,14.80
2022-12-01T15:25:13.852Z,15.48
2022-12-01T15:28:19.706Z,16.63
2022-12-01T15:31:22.143Z,24.35
2022-12-01T15:34:39.414Z,29.87
2022-12-01T15:37:45.269Z,32.83
2022-12-01T15:44:20.849Z,30.40
2022-12-01T15:47:37.807Z,34.70
2022-12-01T15:50:46.138Z,45.07
2022-12-01T15:53:54.749Z,75.82
2022-12-01T15:56:59.100Z,104.20
2022-12-01T16:00:01.645Z,91.78
2022-12-01T16:03:04.311Z,114.68
2022-12-01T16:06:11.697Z,257.70
2022-12-01T16:09:26.253Z,258.30
2022-12-01T16:12:33.045Z,210.65
2022-12-01T16:15:42.862Z,183.20
2022-12-01T16:18:53.230Z,189.32
2022-12-01T16:22:04.730Z,158.07
2022-12-01T16:25:38.382Z,147.30
2022-12-01T16:28:40.823Z,116.80
2022-12-01T16:32:05.130Z,134.35
2022-12-01T16:35:07.625Z,152.88
2022-12-01T16:38:25.104Z,140.30
2022-12-01T16:41:37.695Z,135.75
2022-12-01T16:44:41.867Z,107.38
2022-12-01T16:47:46.191Z,111.30
2022-12-01T16:50:49.891Z,105.85
2022-12-01T16:53:52.725Z,99.57
2022-12-01T16:56:55.381Z,97.60
2022-12-01T16:59:57.913Z,84.18
2022-12-01T17:03:00.836Z,81.07
2022-12-01T17:06:04.068Z,82.07
2022-12-01T17:09:06.510Z,74.97
2022-12-01T17:12:08.959Z,89.57
2022-12-01T17:15:12.099Z,113.82
2022-12-01T17:18:16.435Z,113.97
2022-12-01T17:21:18.950Z,106.40
2022-12-01T17:24:21.413Z,99.27
2022-12-01T17:27:25.215Z,115.45
2022-12-01T17:30:27.853Z,108.00
2022-12-01T17:33:30.621Z,112.10
2022-12-01T17:36:33.146Z,123.78
2022-12-01T17:39:37.076Z,89.57
2022-12-01T17:42:39.669Z,78.55
2022-12-01T17:45:43.043Z,74.65
2022-12-01T17:48:46.494Z,84.50
2022-12-01T17:51:49.197Z,94.63
2022-12-01T17:54:51.923Z,103.63
2022-12-01T17:57:54.842Z,91.53
2022-12-01T18:00:57.253Z,100.18
2022-12-01T18:03:59.738Z,42.00
2022-12-01T18:07:02.155Z,38.17
2022-12-01T18:10:05.269Z,79.07
2022-12-01T18:13:07.983Z,88.70
2022-12-01T18:16:19.661Z,79.40
2022-12-01T18:19:22.233Z,70.35
2022-12-01T18:22:24.610Z,58.10
2022-12-01T18:25:27.308Z,61.53
2022-12-01T18:28:29.925Z,100.25
2022-12-01T18:31:33.203Z,86.90
2022-12-01T18:34:35.765Z,112.70
2022-12-01T18:37:40.380Z,118.25
2022-12-01T18:40:43.230Z,169.37
2022-12-01T18:43:45.881Z,173.27
2022-12-01T18:46:48.624Z,166.75
2022-12-01T18:49:51.364Z,190.00
2022-12-01T18:52:53.788Z,197.82
2022-12-01T18:55:57.026Z,178.03
2022-12-01T18:59:01.951Z,166.98
2022-12-01T19:02:04.764Z,196.10
2022-12-01T19:05:07.697Z,197.82
2022-12-01T19:08:10.588Z,200.05
2022-12-01T19:11:13.753Z,200.27
2022-12-01T19:14:18.167Z,217.50
2022-12-01T19:17:21.875Z,210.20
2022-12-01T19:20:24.602Z,206.32
2022-12-01T19:23:27.674Z,135.75
2022-12-01T19:26:30.377Z,121.17
2022-12-01T19:29:33.081Z,114.47
2022-12-01T19:32:36.485Z,127.97
2022-12-01T19:35:39.104Z,64.78
2022-12-01T19:38:41.892Z,53.80
2022-12-01T19:41:44.688Z,38.17
2022-12-01T19:44:47.639Z,34.72
2022-12-01T19:47:51.575Z,34.22
2022-12-01T19:50:54.405Z,48.03
2022-12-01T19:53:57.534Z,41.22
2022-12-01T19:57:00.005Z,62.17
2022-12-01T20:00:02.952Z,63.75
2022-12-01T20:03:14.660Z,42.88
2022-12-01T20:06:22.514Z,35.70
2022-12-01T20:09:25.804Z,40.47
2022-12-01T20:12:28.607Z,39.20
2022-12-01T20:15:32.780Z,34.78
2022-12-01T20:18:36.299Z,41.53
2022-12-01T20:21:42.534Z,70.82
2022-12-01T20:24:45.363Z,54.10
2022-12-01T20:27:47.757Z,41.33
2022-12-01T20:30:50.260Z,44.40
2022-12-01T20:33:56.189Z,51.92
2022-12-01T20:36:59.267Z,42.75
2022-12-01T20:40:02.084Z,90.28
2022-12-01T20:43:04.924Z,128.07
2022-12-01T20:46:07.836Z,125.55
2022-12-01T20:49:11.241Z,82.25
2022-12-01T20:52:13.947Z,74.22
2022-12-01T20:55:16.857Z,100.47
2022-12-01T20:58:19.657Z,79.47
2022-12-01T21:01:22.795Z,110.47
2022-12-01T21:04:25.399Z,75.28
2022-12-01T21:07:27.865Z,84.28
2022-12-01T21:10:30.348Z,64.65
2022-12-01T21:13:39.552Z,52.40
2022-12-01T21:16:48.117Z,68.05
2022-12-01T21:20:07.082Z,50.85
2022-12-01T21:23:15.072Z,76.25
2022-12-01T21:26:18.991Z,73.70
2022-12-01T21:29:27.867Z,64.40
2022-12-01T21:32:32.245Z,56.88
2022-12-01T21:35:34.758Z,51.70
2022-12-01T21:38:37.455Z,40.67
2022-12-01T21:41:40.784Z,54.85
2022-12-01T21:44:43.356Z,55.60
2022-12-01T21:47:45.805Z,68.22
2022-12-01T21:50:53.791Z,46.08
2022-12-01T21:53:56.759Z,56.70
2022-12-01T21:56:59.199Z,71.70
2022-12-01T22:00:33.699Z,74.23
2022-12-01T22:03:40.089Z,76.70
2022-12-01T22:06:45.435Z,67.45
2022-12-01T22:09:54.614Z,61.72
2022-12-01T22:12:57.032Z,54.50
2022-12-01T22:15:59.577Z,53.63
2022-12-01T22:19:20.240Z,62.75
2022-12-01T22:22:25.159Z,68.50
2022-12-01T22:25:28.458Z,66.28
2022-12-01T22:28:31.219Z,73.72
2022-12-01T22:31:34.202Z,69.00
2022-12-01T22:34:36.822Z,72.68
2022-12-01T22:37:50.181Z,76.40
2022-12-01T22:41:14.462Z,88.85
2022-12-01T22:44:17.280Z,87.60
2022-12-01T22:47:19.734Z,93.80
2022-12-01T22:50:30.568Z,79.03
2022-12-01T22:53:32.915Z,76.35
2022-12-01T22:56:50.065Z,78.80
2022-12-01T22:59:53.221Z,84.60
2022-12-01T23:02:55.907Z,78.03
2022-12-01T23:05:58.548Z,81.20
2022-12-01T23:09:01.820Z,65.65
2022-12-01T23:12:10.104Z,62.88
2022-12-01T23:15:35.361Z,61.20
2022-12-01T23:18:37.906Z,54.60
2022-12-01T23:21:40.768Z,52.95
2022-12-01T23:24:43.673Z,52.08
2022-12-01T23:27:48.733Z,71.10
2022-12-01T23:30:54.459Z,83.68
2022-12-01T23:33:56.913Z,84.07
2022-12-01T23:36:59.360Z,85.78
2022-12-01T23:40:03.093Z,91.95
2022-12-01T23:43:17.826Z,75.95
2022-12-01T23:46:25.329Z,64.20
2022-12-01T23:49:30.221Z,52.43
2022-12-01T23:52:35.482Z,51.10
2022-12-01T23:55:37.898Z,65.25
2022-12-01T23:58:40.781Z,58.72
